Pays
Station

 

Conditions  météo  pour  South Lake Tahoe, Lake Tahoe Airport  -  Etats-Unis    Etats-Unis

  
2 °C
    
 
 

METAR pour South Lake Tahoe, Lake Tahoe Airport :

KTVL 230653Z AUTO 15003KT 10SM OVC048 02/M01 A3011 RMK AO2 SLP185 T00221006

 

Voici le bulletin pour South Lake Tahoe, Lake Tahoe Airport - Etats-Unis.
 
Le bulletin a été fait il y a 21 minutes, à 06:53 UTC .
Le vent soufflait à la vitesse de 1.5 mètres par seconde de Sud/Sud-est (150°).
 
La température était de 2 °C, avec un point de rosée à -1 °C.
La température ressentie était de 0 °C.
 
La pression atmosphérique était de 1020 hPa.
L'humidité relative était de 80.5%.
 
Le ciel était nuageux à partir d'une hauteur de 1463 mètres
 
La visibilité globale était de 16.1 kilomètres.
 

 
 
 

Pays :   A   B   C   D   E   F   G   H   I   J   K   L   M   N   O   P   Q   R   S   T   U   V   W   Y   Z

 

Partenaires :  Info Météo avec Met'info
Météo Marine avec MeteoMarine.net
Infos Site  |  Infos Légales  |  Crédits  |  Confidentialité
Contactez-nous  |  Ajouter aux favoris
© 2013-2019 METAR - Tous droits réservés